sensor_id;sensor_type;location;lat;lon;timestamp;P1;durP1;ratioP1;P2;durP2;ratioP2
3433;SDS011;1730;41.932;25.548;2022-08-11T00:01:16;7.73;;;6.30;;
3433;SDS011;1730;41.932;25.548;2022-08-11T00:03:54;6.60;;;6.00;;
3433;SDS011;1730;41.932;25.548;2022-08-11T00:06:28;11.43;;;6.30;;
3433;SDS011;1730;41.932;25.548;2022-08-11T00:08:56;6.60;;;6.20;;
3433;SDS011;1730;41.932;25.548;2022-08-11T00:11:34;6.97;;;6.27;;
3433;SDS011;1730;41.932;25.548;2022-08-11T00:14:02;9.03;;;5.87;;
3433;SDS011;1730;41.932;25.548;2022-08-11T00:16:29;8.37;;;6.70;;
3433;SDS011;1730;41.932;25.548;2022-08-11T00:18:56;6.30;;;5.90;;
3433;SDS011;1730;41.932;25.548;2022-08-11T00:21:25;6.07;;;5.67;;
3433;SDS011;1730;41.932;25.548;2022-08-11T00:23:53;6.83;;;6.33;;
3433;SDS011;1730;41.932;25.548;2022-08-11T00:26:22;8.50;;;6.43;;
3433;SDS011;1730;41.932;25.548;2022-08-11T00:28:49;7.57;;;6.97;;
3433;SDS011;1730;41.932;25.548;2022-08-11T00:31:31;7.50;;;6.87;;
3433;SDS011;1730;41.932;25.548;2022-08-11T00:33:59;8.03;;;7.27;;
3433;SDS011;1730;41.932;25.548;2022-08-11T00:39:21;13.87;;;7.33;;
3433;SDS011;1730;41.932;25.548;2022-08-11T00:47:39;9.90;;;6.50;;
3433;SDS011;1730;41.932;25.548;2022-08-11T00:50:29;8.40;;;7.70;;
3433;SDS011;1730;41.932;25.548;2022-08-11T01:03:58;9.30;;;7.70;;
3433;SDS011;1730;41.932;25.548;2022-08-11T01:19:33;7.43;;;6.73;;
3433;SDS011;1730;41.932;25.548;2022-08-11T01:28:30;7.10;;;6.50;;
3433;SDS011;1730;41.932;25.548;2022-08-11T01:31:37;7.00;;;6.50;;
3433;SDS011;1730;41.932;25.548;2022-08-11T01:45:31;7.47;;;6.93;;
3433;SDS011;1730;41.932;25.548;2022-08-11T01:59:14;7.53;;;6.83;;
3433;SDS011;1730;41.932;25.548;2022-08-11T02:05:13;7.23;;;6.63;;
3433;SDS011;1730;41.932;25.548;2022-08-11T02:07:32;7.03;;;6.47;;
3433;SDS011;1730;41.932;25.548;2022-08-11T02:10:30;6.40;;;5.90;;
3433;SDS011;1730;41.932;25.548;2022-08-11T02:13:50;8.83;;;6.30;;
3433;SDS011;1730;41.932;25.548;2022-08-11T02:19:22;6.10;;;5.80;;
3433;SDS011;1730;41.932;25.548;2022-08-11T02:22:31;6.30;;;5.30;;
3433;SDS011;1730;41.932;25.548;2022-08-11T02:28:11;7.20;;;5.47;;
3433;SDS011;1730;41.932;25.548;2022-08-11T02:31:12;5.63;;;5.33;;
3433;SDS011;1730;41.932;25.548;2022-08-11T02:34:12;5.93;;;5.40;;
3433;SDS011;1730;41.932;25.548;2022-08-11T02:37:02;6.07;;;5.20;;
3433;SDS011;1730;41.932;25.548;2022-08-11T02:39:33;5.63;;;5.20;;
3433;SDS011;1730;41.932;25.548;2022-08-11T02:42:10;7.13;;;5.30;;
3433;SDS011;1730;41.932;25.548;2022-08-11T02:50:56;5.77;;;5.27;;
3433;SDS011;1730;41.932;25.548;2022-08-11T02:59:55;5.77;;;5.30;;
3433;SDS011;1730;41.932;25.548;2022-08-11T03:13:28;5.80;;;5.50;;
3433;SDS011;1730;41.932;25.548;2022-08-11T03:16:20;6.27;;;5.70;;
3433;SDS011;1730;41.932;25.548;2022-08-11T03:19:27;6.50;;;5.20;;
3433;SDS011;1730;41.932;25.548;2022-08-11T03:25:10;6.13;;;5.83;;
3433;SDS011;1730;41.932;25.548;2022-08-11T03:44:51;9.73;;;6.20;;
3433;SDS011;1730;41.932;25.548;2022-08-11T03:50:56;6.90;;;6.20;;
3433;SDS011;1730;41.932;25.548;2022-08-11T04:11:17;5.80;;;5.27;;
3433;SDS011;1730;41.932;25.548;2022-08-11T04:14:03;14.80;;;5.53;;
3433;SDS011;1730;41.932;25.548;2022-08-11T04:23:07;6.60;;;6.07;;
3433;SDS011;1730;41.932;25.548;2022-08-11T04:28:48;8.93;;;6.50;;
3433;SDS011;1730;41.932;25.548;2022-08-11T04:34:04;7.77;;;6.80;;
3433;SDS011;1730;41.932;25.548;2022-08-11T04:36:56;7.33;;;6.60;;
3433;SDS011;1730;41.932;25.548;2022-08-11T05:00:55;11.10;;;5.70;;
3433;SDS011;1730;41.932;25.548;2022-08-11T05:10:08;4.70;;;4.20;;
3433;SDS011;1730;41.932;25.548;2022-08-11T05:12:56;4.67;;;4.27;;
3433;SDS011;1730;41.932;25.548;2022-08-11T05:15:47;5.30;;;5.00;;
3433;SDS011;1730;41.932;25.548;2022-08-11T05:18:52;4.63;;;4.33;;
3433;SDS011;1730;41.932;25.548;2022-08-11T05:21:39;6.90;;;4.67;;
3433;SDS011;1730;41.932;25.548;2022-08-11T05:24:29;7.43;;;3.63;;
3433;SDS011;1730;41.932;25.548;2022-08-11T05:27:20;3.97;;;3.70;;
3433;SDS011;1730;41.932;25.548;2022-08-11T05:30:13;4.47;;;3.50;;
3433;SDS011;1730;41.932;25.548;2022-08-11T05:36:05;5.20;;;3.77;;
3433;SDS011;1730;41.932;25.548;2022-08-11T05:38:37;8.30;;;4.40;;
3433;SDS011;1730;41.932;25.548;2022-08-11T05:41:23;3.83;;;2.90;;
3433;SDS011;1730;41.932;25.548;2022-08-11T05:44:10;3.43;;;3.00;;
3433;SDS011;1730;41.932;25.548;2022-08-11T05:47:04;3.80;;;3.50;;
3433;SDS011;1730;41.932;25.548;2022-08-11T05:49:59;3.90;;;3.47;;
3433;SDS011;1730;41.932;25.548;2022-08-11T05:52:46;5.97;;;5.17;;
3433;SDS011;1730;41.932;25.548;2022-08-11T05:55:30;4.67;;;4.47;;
3433;SDS011;1730;41.932;25.548;2022-08-11T05:58:16;4.47;;;4.07;;
3433;SDS011;1730;41.932;25.548;2022-08-11T06:00:43;12.93;;;3.80;;
3433;SDS011;1730;41.932;25.548;2022-08-11T06:03:10;8.40;;;3.43;;
3433;SDS011;1730;41.932;25.548;2022-08-11T06:05:46;5.50;;;3.67;;
3433;SDS011;1730;41.932;25.548;2022-08-11T06:08:13;3.93;;;3.63;;
3433;SDS011;1730;41.932;25.548;2022-08-11T06:10:40;4.90;;;3.37;;
3433;SDS011;1730;41.932;25.548;2022-08-11T06:13:08;6.83;;;3.87;;
3433;SDS011;1730;41.932;25.548;2022-08-11T06:15:47;4.53;;;4.23;;
3433;SDS011;1730;41.932;25.548;2022-08-11T06:18:16;2.43;;;2.23;;
3433;SDS011;1730;41.932;25.548;2022-08-11T06:23:18;7.50;;;2.77;;
3433;SDS011;1730;41.932;25.548;2022-08-11T06:25:51;6.23;;;2.60;;
3433;SDS011;1730;41.932;25.548;2022-08-11T06:28:18;3.30;;;3.00;;
3433;SDS011;1730;41.932;25.548;2022-08-11T06:30:54;3.17;;;2.93;;
3433;SDS011;1730;41.932;25.548;2022-08-11T06:33:29;3.93;;;2.63;;
3433;SDS011;1730;41.932;25.548;2022-08-11T06:36:01;3.20;;;3.00;;
3433;SDS011;1730;41.932;25.548;2022-08-11T06:38:40;3.50;;;3.20;;
3433;SDS011;1730;41.932;25.548;2022-08-11T06:41:19;7.30;;;2.70;;
3433;SDS011;1730;41.932;25.548;2022-08-11T06:46:41;2.80;;;2.37;;
3433;SDS011;1730;41.932;25.548;2022-08-11T06:49:17;3.60;;;2.90;;
3433;SDS011;1730;41.932;25.548;2022-08-11T06:52:09;3.70;;;2.83;;
3433;SDS011;1730;41.932;25.548;2022-08-11T06:54:42;6.80;;;2.40;;
3433;SDS011;1730;41.932;25.548;2022-08-11T06:57:14;6.23;;;2.50;;
3433;SDS011;1730;41.932;25.548;2022-08-11T07:00:02;3.63;;;2.67;;
3433;SDS011;1730;41.932;25.548;2022-08-11T07:02:51;3.10;;;2.47;;
3433;SDS011;1730;41.932;25.548;2022-08-11T07:20:38;4.90;;;2.63;;
3433;SDS011;1730;41.932;25.548;2022-08-11T07:23:25;2.50;;;2.30;;
3433;SDS011;1730;41.932;25.548;2022-08-11T07:28:49;4.60;;;2.00;;
3433;SDS011;1730;41.932;25.548;2022-08-11T07:36:30;3.43;;;2.40;;
3433;SDS011;1730;41.932;25.548;2022-08-11T07:39:19;6.20;;;2.50;;
3433;SDS011;1730;41.932;25.548;2022-08-11T07:41:55;2.50;;;2.30;;
3433;SDS011;1730;41.932;25.548;2022-08-11T07:48:09;3.17;;;2.17;;
3433;SDS011;1730;41.932;25.548;2022-08-11T07:54:16;6.90;;;2.70;;
3433;SDS011;1730;41.932;25.548;2022-08-11T07:56:46;2.93;;;2.57;;
3433;SDS011;1730;41.932;25.548;2022-08-11T08:01:49;2.73;;;2.40;;
3433;SDS011;1730;41.932;25.548;2022-08-11T08:04:34;2.53;;;2.33;;
3433;SDS011;1730;41.932;25.548;2022-08-11T08:07:25;2.00;;;1.90;;
3433;SDS011;1730;41.932;25.548;2022-08-11T08:10:10;3.80;;;2.53;;
3433;SDS011;1730;41.932;25.548;2022-08-11T08:12:55;2.80;;;2.40;;
3433;SDS011;1730;41.932;25.548;2022-08-11T08:15:41;4.50;;;2.50;;
3433;SDS011;1730;41.932;25.548;2022-08-11T08:18:26;2.50;;;2.40;;
3433;SDS011;1730;41.932;25.548;2022-08-11T08:21:05;2.80;;;2.60;;
3433;SDS011;1730;41.932;25.548;2022-08-11T08:23:44;6.57;;;2.40;;
3433;SDS011;1730;41.932;25.548;2022-08-11T08:26:20;2.80;;;2.10;;
3433;SDS011;1730;41.932;25.548;2022-08-11T08:29:05;2.87;;;2.50;;
3433;SDS011;1730;41.932;25.548;2022-08-11T08:31:50;3.50;;;2.90;;
3433;SDS011;1730;41.932;25.548;2022-08-11T08:34:21;2.50;;;2.40;;
3433;SDS011;1730;41.932;25.548;2022-08-11T08:36:50;2.70;;;2.50;;
3433;SDS011;1730;41.932;25.548;2022-08-11T08:39:19;2.87;;;2.67;;
3433;SDS011;1730;41.932;25.548;2022-08-11T08:41:56;2.70;;;2.50;;
3433;SDS011;1730;41.932;25.548;2022-08-11T08:44:23;3.70;;;2.57;;
3433;SDS011;1730;41.932;25.548;2022-08-11T08:46:53;3.20;;;2.50;;
3433;SDS011;1730;41.932;25.548;2022-08-11T08:49:22;3.60;;;2.90;;
3433;SDS011;1730;41.932;25.548;2022-08-11T08:51:55;3.67;;;2.47;;
3433;SDS011;1730;41.932;25.548;2022-08-11T08:54:36;15.73;;;3.17;;
3433;SDS011;1730;41.932;25.548;2022-08-11T08:57:04;2.27;;;2.17;;
3433;SDS011;1730;41.932;25.548;2022-08-11T08:59:41;3.00;;;2.20;;
3433;SDS011;1730;41.932;25.548;2022-08-11T09:02:11;2.70;;;2.50;;
3433;SDS011;1730;41.932;25.548;2022-08-11T09:04:38;2.60;;;2.40;;
3433;SDS011;1730;41.932;25.548;2022-08-11T09:07:08;2.77;;;2.57;;
3433;SDS011;1730;41.932;25.548;2022-08-11T09:10:02;3.30;;;2.30;;
3433;SDS011;1730;41.932;25.548;2022-08-11T09:12:38;2.80;;;2.60;;
3433;SDS011;1730;41.932;25.548;2022-08-11T09:15:06;2.37;;;2.27;;
3433;SDS011;1730;41.932;25.548;2022-08-11T09:17:37;2.60;;;2.50;;
3433;SDS011;1730;41.932;25.548;2022-08-11T09:20:14;2.73;;;2.53;;
3433;SDS011;1730;41.932;25.548;2022-08-11T09:22:44;2.50;;;2.40;;
3433;SDS011;1730;41.932;25.548;2022-08-11T09:25:30;2.70;;;2.50;;
3433;SDS011;1730;41.932;25.548;2022-08-11T09:34:00;4.37;;;2.00;;
3433;SDS011;1730;41.932;25.548;2022-08-11T09:36:29;3.80;;;2.60;;
3433;SDS011;1730;41.932;25.548;2022-08-11T09:47:06;2.20;;;2.10;;
3433;SDS011;1730;41.932;25.548;2022-08-11T09:49:45;2.70;;;2.20;;
3433;SDS011;1730;41.932;25.548;2022-08-11T09:52:33;2.37;;;2.27;;
3433;SDS011;1730;41.932;25.548;2022-08-11T10:21:50;7.00;;;2.20;;
3433;SDS011;1730;41.932;25.548;2022-08-11T10:24:36;5.30;;;2.30;;
3433;SDS011;1730;41.932;25.548;2022-08-11T10:27:21;2.00;;;1.90;;
3433;SDS011;1730;41.932;25.548;2022-08-11T10:29:47;2.13;;;1.80;;
3433;SDS011;1730;41.932;25.548;2022-08-11T10:32:33;2.83;;;2.07;;
3433;SDS011;1730;41.932;25.548;2022-08-11T10:35:19;2.40;;;2.20;;
3433;SDS011;1730;41.932;25.548;2022-08-11T10:37:47;2.30;;;2.13;;
3433;SDS011;1730;41.932;25.548;2022-08-11T10:40:14;2.00;;;1.90;;
3433;SDS011;1730;41.932;25.548;2022-08-11T10:42:42;2.07;;;1.90;;
3433;SDS011;1730;41.932;25.548;2022-08-11T10:45:27;2.00;;;1.90;;
3433;SDS011;1730;41.932;25.548;2022-08-11T10:48:13;2.50;;;2.30;;
3433;SDS011;1730;41.932;25.548;2022-08-11T10:50:44;2.17;;;2.07;;
3433;SDS011;1730;41.932;25.548;2022-08-11T10:53:29;9.83;;;2.40;;
3433;SDS011;1730;41.932;25.548;2022-08-11T10:56:14;2.10;;;2.00;;
3433;SDS011;1730;41.932;25.548;2022-08-11T10:58:59;2.40;;;2.30;;
3433;SDS011;1730;41.932;25.548;2022-08-11T11:01:29;6.40;;;2.10;;
3433;SDS011;1730;41.932;25.548;2022-08-11T11:04:01;2.73;;;2.43;;
3433;SDS011;1730;41.932;25.548;2022-08-11T11:09:32;2.37;;;2.17;;
3433;SDS011;1730;41.932;25.548;2022-08-11T11:12:06;2.70;;;2.03;;
3433;SDS011;1730;41.932;25.548;2022-08-11T11:14:55;2.50;;;2.30;;
3433;SDS011;1730;41.932;25.548;2022-08-11T11:17:51;2.13;;;1.90;;
3433;SDS011;1730;41.932;25.548;2022-08-11T11:20:42;2.47;;;1.70;;
3433;SDS011;1730;41.932;25.548;2022-08-11T11:34:36;2.33;;;2.00;;
3433;SDS011;1730;41.932;25.548;2022-08-11T11:37:28;1.83;;;1.73;;
3433;SDS011;1730;41.932;25.548;2022-08-11T11:58:41;2.20;;;2.00;;
3433;SDS011;1730;41.932;25.548;2022-08-11T12:01:39;2.27;;;1.87;;
3433;SDS011;1730;41.932;25.548;2022-08-11T12:04:10;4.90;;;2.30;;
3433;SDS011;1730;41.932;25.548;2022-08-11T12:06:39;2.70;;;1.93;;
3433;SDS011;1730;41.932;25.548;2022-08-11T12:09:06;6.10;;;2.50;;
3433;SDS011;1730;41.932;25.548;2022-08-11T12:14:36;2.90;;;2.57;;
3433;SDS011;1730;41.932;25.548;2022-08-11T12:17:05;2.53;;;1.67;;
3433;SDS011;1730;41.932;25.548;2022-08-11T12:19:30;3.30;;;2.20;;
3433;SDS011;1730;41.932;25.548;2022-08-11T12:22:06;2.07;;;1.93;;
3433;SDS011;1730;41.932;25.548;2022-08-11T12:25:18;2.00;;;1.90;;
3433;SDS011;1730;41.932;25.548;2022-08-11T12:28:05;2.23;;;1.87;;
3433;SDS011;1730;41.932;25.548;2022-08-11T12:30:40;2.50;;;2.30;;
3433;SDS011;1730;41.932;25.548;2022-08-11T12:36:24;1.83;;;1.73;;
3433;SDS011;1730;41.932;25.548;2022-08-11T12:43:27;2.47;;;2.27;;
3433;SDS011;1730;41.932;25.548;2022-08-11T12:56:15;3.60;;;2.00;;
3433;SDS011;1730;41.932;25.548;2022-08-11T12:58:51;6.73;;;1.90;;
3433;SDS011;1730;41.932;25.548;2022-08-11T13:02:01;2.20;;;2.00;;
3433;SDS011;1730;41.932;25.548;2022-08-11T13:04:46;1.93;;;1.80;;
3433;SDS011;1730;41.932;25.548;2022-08-11T13:07:18;1.90;;;1.80;;
3433;SDS011;1730;41.932;25.548;2022-08-11T13:15:41;1.93;;;1.83;;
3433;SDS011;1730;41.932;25.548;2022-08-11T13:18:31;9.23;;;2.13;;
3433;SDS011;1730;41.932;25.548;2022-08-11T13:20:58;3.10;;;1.80;;
3433;SDS011;1730;41.932;25.548;2022-08-11T13:23:25;2.00;;;1.90;;
3433;SDS011;1730;41.932;25.548;2022-08-11T13:25:53;1.93;;;1.70;;
3433;SDS011;1730;41.932;25.548;2022-08-11T13:28:20;2.00;;;1.90;;
3433;SDS011;1730;41.932;25.548;2022-08-11T13:33:59;2.53;;;1.87;;
3433;SDS011;1730;41.932;25.548;2022-08-11T13:39:02;1.90;;;1.80;;
3433;SDS011;1730;41.932;25.548;2022-08-11T13:58:35;2.13;;;1.90;;
3433;SDS011;1730;41.932;25.548;2022-08-11T14:05:00;2.50;;;2.30;;
3433;SDS011;1730;41.932;25.548;2022-08-11T14:11:20;3.80;;;3.53;;
3433;SDS011;1730;41.932;25.548;2022-08-11T14:14:15;5.23;;;3.43;;
3433;SDS011;1730;41.932;25.548;2022-08-11T14:16:46;5.20;;;2.70;;
3433;SDS011;1730;41.932;25.548;2022-08-11T14:19:24;3.30;;;3.00;;
3433;SDS011;1730;41.932;25.548;2022-08-11T14:31:04;10.60;;;3.10;;
3433;SDS011;1730;41.932;25.548;2022-08-11T14:33:33;3.07;;;2.80;;
3433;SDS011;1730;41.932;25.548;2022-08-11T14:36:06;2.60;;;2.50;;
3433;SDS011;1730;41.932;25.548;2022-08-11T14:38:35;2.80;;;2.60;;
3433;SDS011;1730;41.932;25.548;2022-08-11T14:41:04;3.07;;;2.87;;
3433;SDS011;1730;41.932;25.548;2022-08-11T14:43:50;3.30;;;3.10;;
3433;SDS011;1730;41.932;25.548;2022-08-11T14:46:36;3.00;;;2.80;;
3433;SDS011;1730;41.932;25.548;2022-08-11T14:49:22;4.10;;;3.80;;
3433;SDS011;1730;41.932;25.548;2022-08-11T14:51:48;5.03;;;4.00;;
3433;SDS011;1730;41.932;25.548;2022-08-11T14:54:14;4.03;;;3.73;;
3433;SDS011;1730;41.932;25.548;2022-08-11T14:57:05;2.80;;;2.00;;
3433;SDS011;1730;41.932;25.548;2022-08-11T14:59:38;7.40;;;3.10;;
3433;SDS011;1730;41.932;25.548;2022-08-11T15:02:04;4.40;;;3.00;;
3433;SDS011;1730;41.932;25.548;2022-08-11T15:04:49;2.30;;;2.10;;
3433;SDS011;1730;41.932;25.548;2022-08-11T15:07:15;2.00;;;1.90;;
3433;SDS011;1730;41.932;25.548;2022-08-11T15:09:42;3.80;;;2.60;;
3433;SDS011;1730;41.932;25.548;2022-08-11T15:12:09;3.30;;;3.10;;
3433;SDS011;1730;41.932;25.548;2022-08-11T15:14:45;2.43;;;2.23;;
3433;SDS011;1730;41.932;25.548;2022-08-11T15:17:31;3.23;;;2.93;;
3433;SDS011;1730;41.932;25.548;2022-08-11T15:20:08;2.63;;;2.43;;
3433;SDS011;1730;41.932;25.548;2022-08-11T15:22:56;2.60;;;2.50;;
3433;SDS011;1730;41.932;25.548;2022-08-11T15:25:42;2.60;;;2.40;;
3433;SDS011;1730;41.932;25.548;2022-08-11T15:28:10;7.50;;;2.30;;
3433;SDS011;1730;41.932;25.548;2022-08-11T15:30:58;1.90;;;1.80;;
3433;SDS011;1730;41.932;25.548;2022-08-11T15:33:46;2.33;;;2.13;;
3433;SDS011;1730;41.932;25.548;2022-08-11T15:36:35;8.70;;;2.23;;
3433;SDS011;1730;41.932;25.548;2022-08-11T15:39:23;4.50;;;4.10;;
3433;SDS011;1730;41.932;25.548;2022-08-11T15:42:11;4.07;;;2.53;;
3433;SDS011;1730;41.932;25.548;2022-08-11T15:44:58;3.10;;;2.90;;
3433;SDS011;1730;41.932;25.548;2022-08-11T15:47:48;2.43;;;2.23;;
3433;SDS011;1730;41.932;25.548;2022-08-11T15:50:21;22.47;;;12.23;;
3433;SDS011;1730;41.932;25.548;2022-08-11T15:53:41;3.10;;;2.90;;
3433;SDS011;1730;41.932;25.548;2022-08-11T15:55:51;6.90;;;5.43;;
3433;SDS011;1730;41.932;25.548;2022-08-11T15:58:18;4.53;;;2.33;;
3433;SDS011;1730;41.932;25.548;2022-08-11T16:01:04;15.87;;;6.77;;
3433;SDS011;1730;41.932;25.548;2022-08-11T16:03:52;3.00;;;2.40;;
3433;SDS011;1730;41.932;25.548;2022-08-11T16:06:38;3.43;;;2.00;;
3433;SDS011;1730;41.932;25.548;2022-08-11T16:12:12;2.73;;;2.40;;
3433;SDS011;1730;41.932;25.548;2022-08-11T16:14:42;3.90;;;1.90;;
3433;SDS011;1730;41.932;25.548;2022-08-11T16:17:48;4.27;;;2.30;;
3433;SDS011;1730;41.932;25.548;2022-08-11T16:20:17;4.87;;;2.53;;
3433;SDS011;1730;41.932;25.548;2022-08-11T16:22:45;2.80;;;2.20;;
3433;SDS011;1730;41.932;25.548;2022-08-11T16:25:23;3.20;;;2.00;;
3433;SDS011;1730;41.932;25.548;2022-08-11T16:27:52;6.60;;;3.00;;
3433;SDS011;1730;41.932;25.548;2022-08-11T16:30:24;2.77;;;2.20;;
3433;SDS011;1730;41.932;25.548;2022-08-11T16:32:52;3.60;;;3.33;;
3433;SDS011;1730;41.932;25.548;2022-08-11T16:35:22;4.80;;;3.03;;
3433;SDS011;1730;41.932;25.548;2022-08-11T16:38:08;6.23;;;2.37;;
3433;SDS011;1730;41.932;25.548;2022-08-11T16:40:54;2.57;;;2.37;;
3433;SDS011;1730;41.932;25.548;2022-08-11T16:43:24;3.67;;;2.57;;
3433;SDS011;1730;41.932;25.548;2022-08-11T16:46:11;5.90;;;2.60;;
3433;SDS011;1730;41.932;25.548;2022-08-11T16:48:58;3.30;;;2.50;;
3433;SDS011;1730;41.932;25.548;2022-08-11T16:51:30;2.90;;;2.60;;
3433;SDS011;1730;41.932;25.548;2022-08-11T16:54:03;5.30;;;2.50;;
3433;SDS011;1730;41.932;25.548;2022-08-11T16:56:38;3.43;;;2.70;;
3433;SDS011;1730;41.932;25.548;2022-08-11T16:59:47;2.23;;;2.13;;
3433;SDS011;1730;41.932;25.548;2022-08-11T17:02:15;6.90;;;2.73;;
3433;SDS011;1730;41.932;25.548;2022-08-11T17:05:02;2.57;;;2.37;;
3433;SDS011;1730;41.932;25.548;2022-08-11T17:07:52;2.40;;;2.30;;
3433;SDS011;1730;41.932;25.548;2022-08-11T17:10:40;2.60;;;2.40;;
3433;SDS011;1730;41.932;25.548;2022-08-11T17:13:51;2.30;;;2.20;;
3433;SDS011;1730;41.932;25.548;2022-08-11T17:16:23;8.60;;;2.50;;
3433;SDS011;1730;41.932;25.548;2022-08-11T17:18:58;3.40;;;2.20;;
3433;SDS011;1730;41.932;25.548;2022-08-11T17:21:39;5.20;;;2.27;;
3433;SDS011;1730;41.932;25.548;2022-08-11T17:24:27;6.10;;;3.73;;
3433;SDS011;1730;41.932;25.548;2022-08-11T17:26:56;4.10;;;2.77;;
3433;SDS011;1730;41.932;25.548;2022-08-11T17:29:29;3.20;;;2.90;;
3433;SDS011;1730;41.932;25.548;2022-08-11T17:32:10;8.27;;;3.30;;
3433;SDS011;1730;41.932;25.548;2022-08-11T17:35:00;2.97;;;2.77;;
3433;SDS011;1730;41.932;25.548;2022-08-11T17:37:51;5.47;;;2.73;;
3433;SDS011;1730;41.932;25.548;2022-08-11T17:40:20;3.40;;;2.40;;
3433;SDS011;1730;41.932;25.548;2022-08-11T17:42:52;13.53;;;2.90;;
3433;SDS011;1730;41.932;25.548;2022-08-11T17:45:39;4.67;;;2.93;;
3433;SDS011;1730;41.932;25.548;2022-08-11T17:48:38;11.33;;;3.00;;
3433;SDS011;1730;41.932;25.548;2022-08-11T17:51:07;3.17;;;2.97;;
3433;SDS011;1730;41.932;25.548;2022-08-11T17:53:59;4.40;;;3.70;;
3433;SDS011;1730;41.932;25.548;2022-08-11T17:56:48;2.83;;;2.63;;
3433;SDS011;1730;41.932;25.548;2022-08-11T17:59:35;2.70;;;2.50;;
3433;SDS011;1730;41.932;25.548;2022-08-11T18:02:25;2.70;;;2.50;;
3433;SDS011;1730;41.932;25.548;2022-08-11T18:07:43;6.23;;;2.63;;
3433;SDS011;1730;41.932;25.548;2022-08-11T18:10:30;2.97;;;2.73;;
3433;SDS011;1730;41.932;25.548;2022-08-11T18:13:18;2.97;;;2.77;;
3433;SDS011;1730;41.932;25.548;2022-08-11T18:16:04;2.40;;;2.20;;
3433;SDS011;1730;41.932;25.548;2022-08-11T18:18:53;2.87;;;2.67;;
3433;SDS011;1730;41.932;25.548;2022-08-11T18:21:41;8.93;;;2.90;;
3433;SDS011;1730;41.932;25.548;2022-08-11T18:24:27;2.87;;;2.67;;
3433;SDS011;1730;41.932;25.548;2022-08-11T18:27:15;2.40;;;2.20;;
3433;SDS011;1730;41.932;25.548;2022-08-11T18:30:02;4.07;;;2.60;;
3433;SDS011;1730;41.932;25.548;2022-08-11T18:32:48;4.73;;;2.70;;
3433;SDS011;1730;41.932;25.548;2022-08-11T18:35:37;6.37;;;2.77;;
3433;SDS011;1730;41.932;25.548;2022-08-11T18:38:25;3.77;;;2.47;;
3433;SDS011;1730;41.932;25.548;2022-08-11T18:41:11;3.47;;;3.10;;
3433;SDS011;1730;41.932;25.548;2022-08-11T18:43:58;4.47;;;4.03;;
3433;SDS011;1730;41.932;25.548;2022-08-11T18:46:46;3.00;;;2.70;;
3433;SDS011;1730;41.932;25.548;2022-08-11T18:49:34;3.20;;;2.40;;
3433;SDS011;1730;41.932;25.548;2022-08-11T18:52:21;4.17;;;3.03;;
3433;SDS011;1730;41.932;25.548;2022-08-11T18:55:17;3.00;;;2.80;;
3433;SDS011;1730;41.932;25.548;2022-08-11T18:58:06;2.90;;;2.70;;
3433;SDS011;1730;41.932;25.548;2022-08-11T19:00:57;4.10;;;3.70;;
3433;SDS011;1730;41.932;25.548;2022-08-11T19:03:45;2.53;;;2.40;;
3433;SDS011;1730;41.932;25.548;2022-08-11T19:06:31;3.60;;;2.37;;
3433;SDS011;1730;41.932;25.548;2022-08-11T19:09:18;3.30;;;2.33;;
3433;SDS011;1730;41.932;25.548;2022-08-11T19:12:03;2.80;;;2.60;;
3433;SDS011;1730;41.932;25.548;2022-08-11T19:14:52;2.80;;;2.60;;
3433;SDS011;1730;41.932;25.548;2022-08-11T19:17:39;2.60;;;2.40;;
3433;SDS011;1730;41.932;25.548;2022-08-11T19:20:26;7.90;;;2.33;;
3433;SDS011;1730;41.932;25.548;2022-08-11T19:23:14;4.60;;;2.70;;
3433;SDS011;1730;41.932;25.548;2022-08-11T19:26:14;4.43;;;2.80;;
3433;SDS011;1730;41.932;25.548;2022-08-11T19:28:59;3.60;;;2.10;;
3433;SDS011;1730;41.932;25.548;2022-08-11T19:31:44;6.50;;;2.40;;
3433;SDS011;1730;41.932;25.548;2022-08-11T19:34:30;2.57;;;2.37;;
3433;SDS011;1730;41.932;25.548;2022-08-11T19:37:16;3.30;;;2.30;;
3433;SDS011;1730;41.932;25.548;2022-08-11T19:40:03;2.47;;;2.20;;
3433;SDS011;1730;41.932;25.548;2022-08-11T19:42:54;2.70;;;2.50;;
3433;SDS011;1730;41.932;25.548;2022-08-11T19:45:51;2.40;;;2.20;;
3433;SDS011;1730;41.932;25.548;2022-08-11T19:48:37;2.40;;;2.20;;
3433;SDS011;1730;41.932;25.548;2022-08-11T19:51:23;3.93;;;2.47;;
3433;SDS011;1730;41.932;25.548;2022-08-11T19:54:10;2.50;;;2.30;;
3433;SDS011;1730;41.932;25.548;2022-08-11T19:56:55;2.80;;;2.60;;
3433;SDS011;1730;41.932;25.548;2022-08-11T19:59:39;5.60;;;2.27;;
3433;SDS011;1730;41.932;25.548;2022-08-11T20:02:24;4.07;;;2.27;;
3433;SDS011;1730;41.932;25.548;2022-08-11T20:05:08;7.70;;;2.70;;
3433;SDS011;1730;41.932;25.548;2022-08-11T20:07:53;3.47;;;2.47;;
3433;SDS011;1730;41.932;25.548;2022-08-11T20:10:41;2.23;;;2.13;;
3433;SDS011;1730;41.932;25.548;2022-08-11T20:13:29;2.47;;;2.33;;
3433;SDS011;1730;41.932;25.548;2022-08-11T20:16:15;3.17;;;2.23;;
3433;SDS011;1730;41.932;25.548;2022-08-11T20:19:02;5.53;;;2.43;;
3433;SDS011;1730;41.932;25.548;2022-08-11T20:21:47;2.90;;;2.70;;
3433;SDS011;1730;41.932;25.548;2022-08-11T20:24:32;2.70;;;2.40;;
3433;SDS011;1730;41.932;25.548;2022-08-11T20:27:19;2.33;;;2.13;;
3433;SDS011;1730;41.932;25.548;2022-08-11T20:30:04;7.33;;;2.00;;
3433;SDS011;1730;41.932;25.548;2022-08-11T20:32:49;2.40;;;2.20;;
3433;SDS011;1730;41.932;25.548;2022-08-11T20:35:36;3.30;;;2.40;;
3433;SDS011;1730;41.932;25.548;2022-08-11T20:38:21;3.57;;;2.47;;
3433;SDS011;1730;41.932;25.548;2022-08-11T20:41:08;9.50;;;2.27;;
3433;SDS011;1730;41.932;25.548;2022-08-11T20:43:55;2.47;;;2.33;;
3433;SDS011;1730;41.932;25.548;2022-08-11T20:46:41;3.50;;;2.40;;
3433;SDS011;1730;41.932;25.548;2022-08-11T20:49:27;2.47;;;2.27;;
3433;SDS011;1730;41.932;25.548;2022-08-11T20:52:14;2.67;;;2.00;;
3433;SDS011;1730;41.932;25.548;2022-08-11T20:55:01;5.00;;;2.30;;
3433;SDS011;1730;41.932;25.548;2022-08-11T20:57:46;2.60;;;2.50;;
3433;SDS011;1730;41.932;25.548;2022-08-11T21:00:33;3.00;;;2.80;;
3433;SDS011;1730;41.932;25.548;2022-08-11T21:03:18;2.20;;;2.10;;
3433;SDS011;1730;41.932;25.548;2022-08-11T21:06:04;3.90;;;2.40;;
3433;SDS011;1730;41.932;25.548;2022-08-11T21:08:51;3.10;;;2.43;;
3433;SDS011;1730;41.932;25.548;2022-08-11T21:11:37;2.73;;;1.97;;
3433;SDS011;1730;41.932;25.548;2022-08-11T21:14:23;4.77;;;2.60;;
3433;SDS011;1730;41.932;25.548;2022-08-11T21:17:08;3.70;;;2.50;;
3433;SDS011;1730;41.932;25.548;2022-08-11T21:19:55;3.00;;;2.33;;
3433;SDS011;1730;41.932;25.548;2022-08-11T21:22:45;3.60;;;2.30;;
3433;SDS011;1730;41.932;25.548;2022-08-11T21:25:39;2.53;;;2.33;;
3433;SDS011;1730;41.932;25.548;2022-08-11T21:28:28;3.23;;;2.40;;
3433;SDS011;1730;41.932;25.548;2022-08-11T21:31:14;2.80;;;2.60;;
3433;SDS011;1730;41.932;25.548;2022-08-11T21:33:58;2.73;;;2.53;;
3433;SDS011;1730;41.932;25.548;2022-08-11T21:36:44;2.67;;;2.40;;
3433;SDS011;1730;41.932;25.548;2022-08-11T21:39:30;2.67;;;2.40;;
3433;SDS011;1730;41.932;25.548;2022-08-11T21:42:17;2.97;;;2.33;;
3433;SDS011;1730;41.932;25.548;2022-08-11T21:45:04;5.20;;;2.70;;
3433;SDS011;1730;41.932;25.548;2022-08-11T21:47:51;5.07;;;2.30;;
3433;SDS011;1730;41.932;25.548;2022-08-11T21:50:38;2.03;;;1.83;;
3433;SDS011;1730;41.932;25.548;2022-08-11T21:53:23;3.00;;;2.23;;
3433;SDS011;1730;41.932;25.548;2022-08-11T21:56:08;3.10;;;1.97;;
3433;SDS011;1730;41.932;25.548;2022-08-11T21:58:55;2.77;;;2.50;;
3433;SDS011;1730;41.932;25.548;2022-08-11T22:01:41;11.70;;;2.43;;
3433;SDS011;1730;41.932;25.548;2022-08-11T22:04:28;2.50;;;2.30;;
3433;SDS011;1730;41.932;25.548;2022-08-11T22:07:15;2.77;;;2.57;;
3433;SDS011;1730;41.932;25.548;2022-08-11T22:10:01;2.87;;;2.67;;
3433;SDS011;1730;41.932;25.548;2022-08-11T22:12:48;2.90;;;2.53;;
3433;SDS011;1730;41.932;25.548;2022-08-11T22:15:33;3.50;;;2.60;;
3433;SDS011;1730;41.932;25.548;2022-08-11T22:18:19;3.00;;;2.80;;
3433;SDS011;1730;41.932;25.548;2022-08-11T22:21:04;3.03;;;2.83;;
3433;SDS011;1730;41.932;25.548;2022-08-11T22:23:50;3.20;;;2.90;;
3433;SDS011;1730;41.932;25.548;2022-08-11T22:26:35;3.40;;;3.10;;